Time;durP1;ratioP1;P1;durP2;ratioP2;P2;SDS_P1;SDS_P2;PMS_P1;PMS_P2;Temp;Humidity;BMP_temperature;BMP_pressure;BME280_temperature;BME280_humidity;BME280_pressure;Samples;Min_cycle;Max_cycle;Signal;HPM_P1;HPM_P2
2022/06/04 00:02:05;;;;;;;10.43;5.40;;;11.90;99.90;;;;;;5035295;28;20496;-78
2022/06/04 00:04:31;;;;;;;12.57;6.47;;;11.90;99.90;;;;;;5036587;28;20041;-78
2022/06/04 00:06:57;;;;;;;21.90;6.03;;;12.00;99.90;;;;;;5036558;28;20049;-78
2022/06/04 00:09:25;;;;;;;16.20;6.18;;;12.00;99.90;;;;;;5035317;28;20040;-78
2022/06/04 00:17:20;;;;;;;16.40;5.70;;;11.90;99.90;;;;;;5036465;28;20045;-78
2022/06/04 00:19:46;;;;;;;14.15;7.25;;;11.90;99.90;;;;;;5035199;28;20037;-78
2022/06/04 00:22:12;;;;;;;14.80;6.22;;;11.90;99.90;;;;;;5035134;28;20033;-78
2022/06/04 00:24:37;;;;;;;12.95;6.45;;;11.90;99.90;;;;;;5034971;28;20049;-78
2022/06/04 00:27:03;;;;;;;14.35;6.40;;;11.90;99.90;;;;;;5035125;28;20046;-78
2022/06/04 00:29:32;;;;;;;14.57;5.85;;;11.90;99.90;;;;;;5036034;28;20436;-78
2022/06/04 00:31:59;;;;;;;14.85;5.43;;;11.90;99.90;;;;;;5034920;28;20124;-78
2022/06/04 00:34:24;;;;;;;10.85;6.10;;;11.90;99.90;;;;;;5036129;28;20053;-78
2022/06/04 00:36:50;;;;;;;16.25;5.80;;;11.90;99.90;;;;;;5034833;28;20049;-78
2022/06/04 00:39:15;;;;;;;13.60;6.03;;;11.90;99.90;;;;;;5034783;28;20045;-78
2022/06/04 00:42:09;;;;;;;11.90;5.80;;;11.80;99.90;;;;;;5035965;28;20048;-78
2022/06/04 00:44:53;;;;;;;14.35;5.32;;;11.80;99.90;;;;;;5034319;28;20114;-78
2022/06/04 00:47:28;;;;;;;13.77;6.88;;;11.90;99.90;;;;;;5035930;28;20041;-78
2022/06/04 00:49:55;;;;;;;13.68;5.65;;;11.80;99.90;;;;;;5034683;28;20049;-78
2022/06/04 00:52:21;;;;;;;12.88;5.22;;;11.80;99.90;;;;;;5035370;28;20401;-78
2022/06/04 00:54:52;;;;;;;17.70;6.38;;;11.90;99.90;;;;;;5035821;28;20045;-78
2022/06/04 00:57:26;;;;;;;11.00;5.75;;;11.90;99.90;;;;;;5034678;28;20566;-78
2022/06/04 01:00:15;;;;;;;12.13;5.18;;;11.90;99.90;;;;;;5034419;28;20050;-78
2022/06/04 01:03:13;;;;;;;14.40;5.57;;;11.90;99.90;;;;;;5035895;28;20051;-78
2022/06/04 01:06:16;;;;;;;14.25;5.30;;;11.90;99.90;;;;;;5035536;28;20507;-78
2022/06/04 01:09:02;;;;;;;10.30;5.00;;;11.80;99.90;;;;;;5034147;28;20050;-78
2022/06/04 01:12:10;;;;;;;14.43;4.95;;;11.80;99.90;;;;;;5035474;28;20049;-78
2022/06/04 01:14:57;;;;;;;17.02;5.97;;;11.80;99.90;;;;;;5035397;28;20128;-78
2022/06/04 01:17:53;;;;;;;12.13;5.18;;;11.80;99.90;;;;;;5034203;28;20048;-78
2022/06/04 01:20:27;;;;;;;14.20;6.00;;;11.90;99.90;;;;;;5035476;28;20041;-78
2022/06/04 01:23:24;;;;;;;12.75;5.35;;;11.80;99.90;;;;;;5033978;28;20049;-76
2022/06/04 01:26:16;;;;;;;11.45;6.10;;;11.80;99.90;;;;;;5035038;28;20084;-78
2022/06/04 01:28:49;;;;;;;11.38;5.50;;;11.80;99.90;;;;;;5035178;28;20045;-78
2022/06/04 01:31:20;;;;;;;16.98;5.80;;;11.80;99.90;;;;;;5034939;28;20421;-78
2022/06/04 01:33:52;;;;;;;12.82;5.57;;;11.70;99.90;;;;;;5034904;28;20547;-78
2022/06/04 01:36:28;;;;;;;13.50;5.72;;;11.70;99.90;;;;;;5035041;28;20049;-78
2022/06/04 01:38:55;;;;;;;13.05;5.63;;;11.70;99.90;;;;;;5033641;28;20077;-78
2022/06/04 01:41:29;;;;;;;12.93;5.85;;;11.70;99.90;;;;;;5033866;28;20405;-78
2022/06/04 01:44:05;;;;;;;17.08;5.60;;;11.70;99.90;;;;;;5033664;28;20080;-78
2022/06/04 01:46:39;;;;;;;11.38;5.50;;;11.70;99.90;;;;;;5035215;28;20052;-78
2022/06/04 01:49:31;;;;;;;11.50;6.43;;;11.60;99.90;;;;;;5034605;28;20485;-78
2022/06/04 01:52:05;;;;;;;10.05;4.70;;;11.60;99.90;;;;;;5034232;28;20053;-78
2022/06/04 01:54:38;;;;;;;12.00;5.45;;;11.70;99.90;;;;;;5034724;28;20049;-78
2022/06/04 01:57:18;;;;;;;15.18;5.22;;;11.60;99.90;;;;;;5034697;28;20041;-78
2022/06/04 01:59:51;;;;;;;10.88;4.85;;;11.60;99.90;;;;;;5033304;28;20102;-78
2022/06/04 02:02:24;;;;;;;11.77;5.30;;;11.60;99.90;;;;;;5033266;28;20053;-76
2022/06/04 02:04:53;;;;;;;10.18;5.22;;;11.50;99.90;;;;;;5033305;28;20049;-77
2022/06/04 02:07:29;;;;;;;13.23;5.47;;;11.60;99.90;;;;;;5034571;28;20045;-79
2022/06/04 02:10:00;;;;;;;9.70;5.07;;;11.60;99.90;;;;;;5034411;28;20118;-78
2022/06/04 02:12:26;;;;;;;10.50;4.32;;;11.60;99.90;;;;;;5032710;28;20477;-79
2022/06/04 02:14:52;;;;;;;10.48;4.30;;;11.50;99.90;;;;;;5034307;28;20144;-78
2022/06/04 02:17:23;;;;;;;10.63;4.38;;;11.50;99.90;;;;;;5033937;28;20041;-79
2022/06/04 02:19:48;;;;;;;11.70;4.45;;;11.50;99.90;;;;;;5033051;28;20485;-79
2022/06/04 02:22:14;;;;;;;12.40;5.50;;;11.60;99.90;;;;;;5034023;28;20034;-79
2022/06/04 02:24:41;;;;;;;10.90;4.30;;;11.50;99.90;;;;;;5033943;28;20037;-78
2022/06/04 02:27:08;;;;;;;12.25;4.55;;;11.60;99.90;;;;;;5034120;28;20041;-78
2022/06/04 02:29:38;;;;;;;7.65;4.70;;;11.60;99.90;;;;;;5034011;28;20069;-78
2022/06/04 02:32:24;;;;;;;11.73;4.90;;;11.60;99.90;;;;;;5034553;28;20088;-79
2022/06/04 02:35:01;;;;;;;8.93;4.25;;;11.60;99.90;;;;;;5033984;28;20041;-78
2022/06/04 02:37:33;;;;;;;9.48;3.67;;;11.50;99.90;;;;;;5033985;28;20045;-78
2022/06/04 02:40:18;;;;;;;11.65;5.03;;;11.60;99.90;;;;;;5032654;28;20050;-78
2022/06/04 02:42:52;;;;;;;8.57;4.90;;;11.60;99.90;;;;;;5033883;28;20050;-78
2022/06/04 02:45:32;;;;;;;11.73;5.22;;;11.60;99.90;;;;;;5032531;28;20555;-78
2022/06/04 02:48:17;;;;;;;10.98;5.53;;;11.50;99.90;;;;;;5034042;28;20045;-78
2022/06/04 02:51:05;;;;;;;13.93;5.10;;;11.50;99.90;;;;;;5032494;28;20053;-78
2022/06/04 02:53:33;;;;;;;10.23;5.55;;;11.50;99.90;;;;;;5032206;28;20066;-78
2022/06/04 02:56:06;;;;;;;13.32;5.68;;;11.50;99.90;;;;;;5032628;28;20056;-78
2022/06/04 02:58:33;;;;;;;9.55;4.85;;;11.50;99.90;;;;;;5033548;28;20041;-79
2022/06/04 03:01:00;;;;;;;9.55;4.90;;;11.50;99.90;;;;;;5032247;28;20076;-79
2022/06/04 03:03:26;;;;;;;9.05;4.75;;;11.50;99.90;;;;;;5033374;28;20030;-78
2022/06/04 03:06:03;;;;;;;10.30;4.78;;;11.50;99.90;;;;;;5032955;28;20383;-78
2022/06/04 03:08:32;;;;;;;11.45;5.63;;;11.50;99.90;;;;;;5031484;28;20477;-78
2022/06/04 03:10:58;;;;;;;10.88;5.20;;;11.40;99.90;;;;;;5031498;28;20129;-78
2022/06/04 03:13:24;;;;;;;9.30;4.95;;;11.40;99.90;;;;;;5032227;28;20412;-79
2022/06/04 03:15:49;;;;;;;9.40;4.45;;;11.40;99.90;;;;;;5032024;28;20041;-78
2022/06/04 03:18:16;;;;;;;14.57;5.70;;;11.30;99.90;;;;;;5032535;28;20107;-78
2022/06/04 03:20:42;;;;;;;10.27;5.30;;;11.40;99.90;;;;;;5033390;28;20120;-79
2022/06/04 03:23:08;;;;;;;9.70;5.25;;;11.40;99.90;;;;;;5032966;28;20081;-78
2022/06/04 03:25:36;;;;;;;15.32;5.40;;;11.40;99.90;;;;;;5037197;28;20072;-79
2022/06/04 03:28:02;;;;;;;10.50;5.25;;;11.40;99.90;;;;;;5037029;28;20484;-79
2022/06/04 03:30:28;;;;;;;10.00;4.68;;;11.40;99.90;;;;;;5035769;28;20073;-78
2022/06/04 03:32:55;;;;;;;9.70;5.13;;;11.30;99.90;;;;;;5035700;28;20370;-78
2022/06/04 03:35:21;;;;;;;9.55;5.05;;;11.30;99.90;;;;;;5035982;28;20454;-78
2022/06/04 03:37:47;;;;;;;10.38;4.93;;;11.30;99.90;;;;;;5036042;28;20084;-78
2022/06/04 03:40:13;;;;;;;9.75;4.75;;;11.30;99.90;;;;;;5035675;28;20077;-78
2022/06/04 03:42:39;;;;;;;12.30;5.05;;;11.30;99.90;;;;;;5037069;28;20115;-78
2022/06/04 03:45:06;;;;;;;10.50;4.85;;;11.30;99.90;;;;;;5035535;28;20481;-78
2022/06/04 03:47:36;;;;;;;8.82;4.80;;;11.40;99.90;;;;;;5036975;28;20053;-78
2022/06/04 03:50:06;;;;;;;14.40;4.90;;;11.40;99.90;;;;;;5036829;28;20084;-78
2022/06/04 03:52:32;;;;;;;9.25;5.00;;;11.40;99.90;;;;;;5036460;28;20106;-79
2022/06/04 03:54:58;;;;;;;13.63;5.10;;;11.40;99.90;;;;;;5036462;28;20128;-78
2022/06/04 03:57:38;;;;;;;10.82;5.10;;;11.40;99.90;;;;;;5035533;28;20045;-78
2022/06/04 04:00:15;;;;;;;10.02;4.93;;;11.40;99.90;;;;;;5035778;28;20084;-78
2022/06/04 04:02:43;;;;;;;10.20;5.28;;;11.50;99.90;;;;;;5036458;28;20045;-79
2022/06/04 04:05:12;;;;;;;10.35;4.57;;;11.40;99.90;;;;;;5036463;28;20049;-79
2022/06/04 04:07:39;;;;;;;11.35;5.32;;;11.50;99.90;;;;;;5035096;28;20083;-78
2022/06/04 04:10:05;;;;;;;13.35;4.82;;;11.50;99.90;;;;;;5036270;28;20443;-78
2022/06/04 04:12:31;;;;;;;10.48;5.53;;;11.60;99.90;;;;;;5034916;28;20431;-78
2022/06/04 04:14:57;;;;;;;11.45;5.53;;;11.70;99.90;;;;;;5035221;28;20501;-78
2022/06/04 04:17:23;;;;;;;8.63;4.38;;;11.70;99.90;;;;;;5035266;28;20053;-77
2022/06/04 04:19:49;;;;;;;12.15;5.28;;;11.70;99.90;;;;;;5036373;28;20041;-77
2022/06/04 04:22:15;;;;;;;10.73;4.68;;;11.70;99.90;;;;;;5034782;28;20048;-77
2022/06/04 04:24:41;;;;;;;9.43;4.78;;;11.70;99.90;;;;;;5036070;28;20049;-77
2022/06/04 04:27:07;;;;;;;10.25;4.93;;;11.80;99.90;;;;;;5034742;28;20056;-77
2022/06/04 04:29:32;;;;;;;10.38;4.90;;;11.80;99.90;;;;;;5034698;28;20045;-77
2022/06/04 04:31:58;;;;;;;11.18;5.25;;;11.80;99.90;;;;;;5034717;28;20057;-77
2022/06/04 04:34:24;;;;;;;9.52;4.60;;;11.90;99.90;;;;;;5034554;28;20393;-77
2022/06/04 04:36:49;;;;;;;8.75;5.57;;;12.00;99.90;;;;;;5034527;28;20124;-77
2022/06/04 04:39:15;;;;;;;11.80;4.40;;;12.00;99.90;;;;;;5034573;28;20041;-77
2022/06/04 04:41:41;;;;;;;11.60;4.97;;;12.00;99.90;;;;;;5035716;28;20041;-77
2022/06/04 04:44:07;;;;;;;9.90;4.22;;;12.00;99.90;;;;;;5034711;28;20045;-77
2022/06/04 04:46:33;;;;;;;8.95;4.95;;;12.20;99.90;;;;;;5034443;28;20120;-78
2022/06/04 04:48:58;;;;;;;13.32;5.50;;;12.20;99.90;;;;;;5034323;28;20149;-78
2022/06/04 04:51:26;;;;;;;10.38;4.55;;;12.20;99.90;;;;;;5035558;28;20080;-78
2022/06/04 04:53:52;;;;;;;10.48;4.88;;;12.20;99.90;;;;;;5035356;28;20103;-78
2022/06/04 04:56:21;;;;;;;9.45;4.93;;;12.30;99.90;;;;;;5034514;28;20060;-77
2022/06/04 04:58:46;;;;;;;13.60;5.30;;;12.30;99.90;;;;;;5034203;28;20049;-77
2022/06/04 05:01:19;;;;;;;9.70;5.50;;;12.40;99.90;;;;;;5034231;28;20044;-77
2022/06/04 05:03:45;;;;;;;11.23;5.95;;;12.40;99.90;;;;;;5034358;28;20103;-77
2022/06/04 05:06:13;;;;;;;13.50;5.85;;;12.50;99.90;;;;;;5034002;28;20042;-78
2022/06/04 05:08:39;;;;;;;12.27;5.93;;;12.60;99.90;;;;;;5035490;28;20116;-78
2022/06/04 05:11:10;;;;;;;7.80;4.50;;;12.70;99.90;;;;;;5034051;28;20127;-77
2022/06/04 05:13:35;;;;;;;11.38;4.88;;;12.60;99.90;;;;;;5034010;28;20113;-78
2022/06/04 05:16:02;;;;;;;11.40;5.45;;;12.60;99.90;;;;;;5034147;28;20132;-77
2022/06/04 05:18:27;;;;;;;11.05;5.30;;;12.50;99.90;;;;;;5035011;28;20183;-78
2022/06/04 05:20:53;;;;;;;8.05;4.97;;;12.50;99.90;;;;;;5034950;28;20489;-78
2022/06/04 05:23:19;;;;;;;12.63;4.97;;;12.50;99.90;;;;;;5035144;28;20052;-78
2022/06/04 05:25:45;;;;;;;11.13;5.57;;;12.50;99.90;;;;;;5033968;28;20042;-77
2022/06/04 05:28:10;;;;;;;8.43;4.88;;;12.50;99.90;;;;;;5034900;28;20500;-77
2022/06/04 05:30:36;;;;;;;12.43;5.05;;;12.60;99.90;;;;;;5035088;28;20042;-77
2022/06/04 05:33:02;;;;;;;11.38;5.60;;;12.70;99.90;;;;;;5034821;28;20055;-77
2022/06/04 05:35:28;;;;;;;12.40;5.97;;;12.70;99.90;;;;;;5034845;28;20061;-77
2022/06/04 05:37:53;;;;;;;11.32;6.13;;;12.80;99.90;;;;;;5033778;28;20359;-77
2022/06/04 05:40:19;;;;;;;11.15;5.90;;;12.80;99.90;;;;;;5033631;28;20512;-77
2022/06/04 05:42:45;;;;;;;17.80;5.80;;;12.90;99.90;;;;;;5034652;28;20454;-77
2022/06/04 05:45:10;;;;;;;8.27;4.53;;;12.90;99.90;;;;;;5034462;28;20049;-77
2022/06/04 05:47:36;;;;;;;10.38;4.65;;;13.00;99.90;;;;;;5033111;28;20037;-77
2022/06/04 05:50:02;;;;;;;13.75;5.03;;;13.00;99.90;;;;;;5033195;28;20444;-77
2022/06/04 05:52:28;;;;;;;9.75;4.72;;;13.00;99.90;;;;;;5034355;28;20072;-78
2022/06/04 05:54:54;;;;;;;12.43;4.95;;;13.00;99.90;;;;;;5033500;28;20057;-78
2022/06/04 05:57:19;;;;;;;11.88;4.78;;;13.20;99.90;;;;;;5034528;28;20049;-78
2022/06/04 05:59:45;;;;;;;13.52;5.20;;;13.50;99.90;;;;;;5034596;28;20072;-79
2022/06/04 06:02:11;;;;;;;9.52;5.28;;;13.60;99.90;;;;;;5033179;28;20049;-79
2022/06/04 06:04:36;;;;;;;10.07;4.95;;;13.60;99.90;;;;;;5033218;28;20053;-78
2022/06/04 06:07:02;;;;;;;10.05;4.60;;;13.60;99.90;;;;;;5033156;28;20072;-78
2022/06/04 06:09:28;;;;;;;10.23;4.68;;;13.80;99.90;;;;;;5034183;28;20045;-77
2022/06/04 06:11:55;;;;;;;9.10;4.78;;;13.60;99.90;;;;;;5034254;28;20051;-78
2022/06/04 06:14:22;;;;;;;10.68;5.50;;;13.60;99.90;;;;;;5033114;28;20045;-78
2022/06/04 06:16:49;;;;;;;10.27;4.72;;;13.60;99.90;;;;;;5033891;28;20057;-77
2022/06/04 06:19:17;;;;;;;10.88;5.20;;;13.70;99.90;;;;;;5032654;28;20552;-77
2022/06/04 06:21:43;;;;;;;11.13;4.80;;;13.80;99.90;;;;;;5036089;28;20041;-76
2022/06/04 06:24:11;;;;;;;11.48;4.80;;;13.90;99.90;;;;;;5041215;28;20425;-77
2022/06/04 06:26:49;;;;;;;12.38;5.00;;;13.90;99.90;;;;;;5033590;28;20389;-76
2022/06/04 06:29:17;;;;;;;11.48;5.88;;;13.80;99.90;;;;;;5032272;28;20187;-77
2022/06/04 06:31:42;;;;;;;9.73;4.88;;;13.90;99.90;;;;;;5032247;28;20095;-77
2022/06/04 06:34:08;;;;;;;11.95;5.15;;;13.90;99.90;;;;;;5033712;28;20041;-77
2022/06/04 06:36:34;;;;;;;10.10;5.38;;;13.90;99.90;;;;;;5033824;28;20053;-77
2022/06/04 06:39:00;;;;;;;12.73;4.68;;;13.80;99.90;;;;;;5032227;28;20125;-76
2022/06/04 06:41:26;;;;;;;8.88;4.88;;;13.80;99.90;;;;;;5033477;28;20095;-77
2022/06/04 06:43:52;;;;;;;10.52;4.80;;;13.70;99.90;;;;;;5032293;28;20053;-76
2022/06/04 06:46:39;;;;;;;11.85;5.15;;;13.70;99.90;;;;;;5033633;28;20072;-78
2022/06/04 06:49:13;;;;;;;11.27;5.30;;;13.80;99.90;;;;;;5032370;28;20034;-77
2022/06/04 06:51:45;;;;;;;13.15;5.10;;;13.80;99.90;;;;;;5032051;28;20053;-78
2022/06/04 06:54:11;;;;;;;11.93;5.27;;;13.90;99.90;;;;;;5033442;28;20405;-76
2022/06/04 06:56:40;;;;;;;10.43;5.15;;;13.60;99.90;;;;;;5032251;28;20132;-77
2022/06/04 06:59:06;;;;;;;12.35;5.50;;;13.70;99.90;;;;;;5033146;28;20404;-77
2022/06/04 07:01:33;;;;;;;9.48;5.13;;;13.90;99.90;;;;;;5031902;28;20484;-76
2022/06/04 07:04:01;;;;;;;13.20;5.70;;;14.00;99.90;;;;;;5033206;28;20126;-77
2022/06/04 07:06:36;;;;;;;15.15;5.32;;;14.00;99.90;;;;;;5031842;28;20037;-77
2022/06/04 07:09:18;;;;;;;12.70;4.75;;;14.00;99.90;;;;;;5031869;28;20061;-77
2022/06/04 07:11:44;;;;;;;9.80;4.82;;;14.00;99.90;;;;;;5033043;28;20051;-77
2022/06/04 07:14:10;;;;;;;13.55;6.25;;;14.00;99.90;;;;;;5031808;28;20049;-76
2022/06/04 07:16:36;;;;;;;11.15;4.80;;;13.90;99.90;;;;;;5032108;28;20045;-76
2022/06/04 07:19:02;;;;;;;11.98;5.72;;;14.00;99.90;;;;;;5032957;28;20049;-77
2022/06/04 07:21:29;;;;;;;12.82;5.10;;;13.90;99.90;;;;;;5031951;28;20029;-77
2022/06/04 07:23:55;;;;;;;12.50;6.20;;;13.90;99.90;;;;;;5031986;28;20049;-77
2022/06/04 07:26:21;;;;;;;10.07;5.50;;;14.30;99.90;;;;;;5033131;28;20068;-76
2022/06/04 07:28:47;;;;;;;11.73;5.57;;;14.70;99.90;;;;;;5032999;28;20123;-77
2022/06/04 07:31:14;;;;;;;11.02;5.55;;;14.60;99.90;;;;;;5031853;28;20077;-77
2022/06/04 07:33:47;;;;;;;10.77;5.18;;;14.60;99.90;;;;;;5031885;28;20049;-77
2022/06/04 07:36:18;;;;;;;9.07;4.97;;;14.70;99.90;;;;;;5031530;28;20062;-77
2022/06/04 07:38:45;;;;;;;13.30;4.95;;;15.00;99.90;;;;;;5032040;28;20055;-77
2022/06/04 07:41:21;;;;;;;10.88;5.20;;;14.90;99.90;;;;;;5031558;28;20045;-77
2022/06/04 07:43:47;;;;;;;10.88;4.97;;;14.90;99.90;;;;;;5031623;28;20144;-77
2022/06/04 07:46:14;;;;;;;13.88;5.13;;;14.80;99.90;;;;;;5032708;28;20045;-77
2022/06/04 07:48:39;;;;;;;8.25;4.75;;;15.00;99.90;;;;;;5031711;28;20552;-77
2022/06/04 07:51:05;;;;;;;9.88;5.15;;;15.30;99.90;;;;;;5032528;28;20125;-77
2022/06/04 07:53:31;;;;;;;9.70;5.55;;;15.20;99.90;;;;;;5032586;28;20068;-77
2022/06/04 07:55:57;;;;;;;10.65;4.78;;;15.10;99.90;;;;;;5032608;28;20515;-77
2022/06/04 07:58:23;;;;;;;12.70;5.55;;;14.70;99.90;;;;;;5032682;28;20045;-77
2022/06/04 08:00:56;;;;;;;10.20;5.05;;;14.90;99.90;;;;;;5031532;28;20497;-77
2022/06/04 08:03:22;;;;;;;14.35;5.20;;;15.10;99.90;;;;;;5031689;28;20049;-77
2022/06/04 08:05:50;;;;;;;9.13;5.45;;;15.20;99.90;;;;;;5031285;28;20421;-76
2022/06/04 08:08:16;;;;;;;10.50;5.63;;;15.30;99.90;;;;;;5031138;28;20398;-77
2022/06/04 08:10:46;;;;;;;12.70;5.55;;;15.40;99.90;;;;;;5039698;28;20542;-76
2022/06/04 08:13:30;;;;;;;13.00;5.50;;;15.30;99.90;;;;;;5053785;28;20054;-77
2022/06/04 08:15:58;;;;;;;10.73;5.47;;;15.50;99.90;;;;;;5056173;28;20049;-77
2022/06/04 08:18:25;;;;;;;16.23;5.95;;;15.70;99.90;;;;;;5054814;28;20049;-77
2022/06/04 08:20:52;;;;;;;11.55;5.25;;;15.60;99.90;;;;;;5047327;28;20094;-77
2022/06/04 08:23:19;;;;;;;9.85;5.25;;;15.50;99.90;;;;;;5056197;28;20064;-77
2022/06/04 08:25:48;;;;;;;8.98;5.80;;;15.30;99.90;;;;;;5054571;28;20052;-77
2022/06/04 08:28:14;;;;;;;12.95;4.55;;;15.60;99.90;;;;;;5054399;28;20054;-77
2022/06/04 08:30:40;;;;;;;11.00;4.50;;;15.40;99.90;;;;;;5054756;28;20060;-77
2022/06/04 08:33:06;;;;;;;11.80;5.32;;;15.50;99.90;;;;;;5055854;28;20045;-78
2022/06/04 08:35:32;;;;;;;12.68;5.28;;;15.50;99.90;;;;;;5054438;28;20045;-77
2022/06/04 08:37:57;;;;;;;8.63;4.47;;;15.50;99.90;;;;;;5055602;28;20056;-77
2022/06/04 08:40:29;;;;;;;11.65;4.68;;;16.00;99.90;;;;;;5055503;28;20045;-78
2022/06/04 08:43:08;;;;;;;11.68;4.70;;;16.10;99.90;;;;;;5055721;28;20056;-77
2022/06/04 08:45:37;;;;;;;11.05;4.93;;;16.10;99.90;;;;;;5055288;28;20491;-77
2022/06/04 08:48:04;;;;;;;13.63;4.70;;;16.20;99.90;;;;;;5054214;28;20049;-77
2022/06/04 08:50:35;;;;;;;12.85;5.40;;;16.40;99.90;;;;;;5055726;28;20080;-78
2022/06/04 08:53:02;;;;;;;9.18;4.53;;;16.20;99.90;;;;;;5054938;28;20564;-77
2022/06/04 08:59:15;;;;;;;11.68;5.05;;;16.30;99.90;;;;;;5055448;28;20052;-77
2022/06/04 09:01:58;;;;;;;15.75;5.80;;;16.50;99.90;;;;;;5016574;28;20053;-78
2022/06/04 09:04:54;;;;;;;10.75;4.85;;;16.00;99.90;;;;;;5016680;28;20073;-79
2022/06/04 09:07:37;;;;;;;9.25;4.95;;;16.30;99.90;;;;;;5044973;28;20072;-82
2022/06/04 09:10:19;;;;;;;10.73;5.18;;;16.60;99.90;;;;;;5054059;28;20060;-81
2022/06/04 09:13:00;;;;;;;13.25;5.47;;;16.70;99.90;;;;;;5053391;28;20115;-78
2022/06/04 09:15:36;;;;;;;11.40;5.18;;;16.60;99.90;;;;;;5054156;28;20392;-80
2022/06/04 09:18:27;;;;;;;14.52;5.20;;;16.50;99.90;;;;;;5053815;28;20060;-78
2022/06/04 09:20:56;;;;;;;8.77;4.97;;;16.80;99.90;;;;;;5046151;28;20076;-77
2022/06/04 09:23:34;;;;;;;12.70;5.50;;;17.00;99.90;;;;;;5053465;28;20527;-78
2022/06/04 09:26:15;;;;;;;13.77;5.85;;;16.90;99.90;;;;;;5053763;28;20045;-79
2022/06/04 09:29:11;;;;;;;10.07;5.70;;;17.20;99.90;;;;;;5053317;28;20044;-78
2022/06/04 09:31:43;;;;;;;11.82;5.43;;;17.30;99.90;;;;;;5053427;28;20076;-77
2022/06/04 09:34:16;;;;;;;12.30;5.70;;;17.30;99.90;;;;;;5053591;28;20143;-77
2022/06/04 09:36:46;;;;;;;12.00;5.85;;;17.20;99.90;;;;;;5053167;28;20047;-77
2022/06/04 09:39:27;;;;;;;13.93;6.07;;;17.40;99.90;;;;;;5054668;28;20041;-77
2022/06/04 09:41:59;;;;;;;11.77;6.05;;;17.30;99.90;;;;;;5053404;28;20114;-77
2022/06/04 09:44:27;;;;;;;14.65;5.75;;;17.20;99.90;;;;;;5053432;28;20092;-77
2022/06/04 09:47:16;;;;;;;13.43;6.22;;;17.20;99.90;;;;;;5053568;28;20033;-76
2022/06/04 09:50:06;;;;;;;17.90;6.15;;;17.70;99.90;;;;;;5052385;28;20053;-76
2022/06/04 09:52:41;;;;;;;9.77;5.95;;;17.40;99.90;;;;;;5052886;28;20064;-77
2022/06/04 09:55:27;;;;;;;10.68;6.57;;;17.20;99.90;;;;;;5052807;28;20056;-77
2022/06/04 09:58:00;;;;;;;16.05;6.55;;;17.30;99.90;;;;;;5052872;28;20075;-76
2022/06/04 10:00:32;;;;;;;13.68;6.28;;;17.20;99.90;;;;;;5052972;28;20408;-76
2022/06/04 10:03:13;;;;;;;15.80;6.88;;;17.30;99.90;;;;;;5053094;28;20053;-77
2022/06/04 10:05:52;;;;;;;14.48;7.05;;;17.50;99.90;;;;;;5054179;28;20049;-76
2022/06/04 10:08:25;;;;;;;18.35;8.48;;;17.30;99.90;;;;;;5053906;28;20588;-77
2022/06/04 10:11:07;;;;;;;18.50;8.73;;;17.40;99.90;;;;;;5052517;28;20087;-77
2022/06/04 10:13:42;;;;;;;19.30;8.73;;;17.40;99.90;;;;;;5053872;28;20048;-77
2022/06/04 10:16:28;;;;;;;19.85;8.20;;;17.10;99.90;;;;;;5053726;28;20107;-77
2022/06/04 10:19:12;;;;;;;19.60;8.77;;;17.20;99.90;;;;;;5053338;28;20120;-76
2022/06/04 10:21:41;;;;;;;17.92;7.80;;;17.50;99.90;;;;;;5052669;28;20049;-77
2022/06/04 10:24:28;;;;;;;28.45;12.40;;;17.00;99.90;;;;;;5052420;28;20084;-77
2022/06/04 10:27:13;;;;;;;20.98;8.30;;;16.90;99.90;;;;;;5051825;28;20041;-76
2022/06/04 10:30:05;;;;;;;15.48;7.30;;;17.30;99.90;;;;;;5050005;28;20057;-76
2022/06/04 10:32:44;;;;;;;13.10;6.65;;;17.20;99.90;;;;;;5053162;28;20041;-76
2022/06/04 10:35:34;;;;;;;17.23;6.72;;;17.60;99.90;;;;;;5046845;28;20795;-77
2022/06/04 10:38:20;;;;;;;16.08;7.03;;;17.70;99.90;;;;;;5042731;28;20484;-77
2022/06/04 10:41:12;;;;;;;13.90;5.45;;;17.60;99.90;;;;;;5048030;28;20053;-77
2022/06/04 10:43:59;;;;;;;18.92;7.90;;;17.80;99.90;;;;;;5052376;28;20045;-77
2022/06/04 10:46:41;;;;;;;17.60;7.32;;;18.10;99.90;;;;;;5052365;28;20056;-77
2022/06/04 10:49:30;;;;;;;16.20;7.45;;;17.90;99.90;;;;;;5051462;28;20044;-77
2022/06/04 10:52:33;;;;;;;22.77;7.70;;;17.60;99.90;;;;;;5024034;28;20496;-78
2022/06/04 10:55:23;;;;;;;16.25;7.47;;;17.60;99.90;;;;;;5051942;28;20072;-78
2022/06/04 10:57:57;;;;;;;18.65;8.25;;;17.80;99.90;;;;;;5051110;28;20412;-77
2022/06/04 11:00:35;;;;;;;23.63;9.77;;;17.60;99.90;;;;;;5052173;28;20414;-78
2022/06/04 11:03:19;;;;;;;17.23;8.18;;;17.50;99.90;;;;;;5051897;28;20124;-77
2022/06/04 11:05:50;;;;;;;16.33;7.65;;;17.50;99.90;;;;;;5053145;28;20481;-77
2022/06/04 11:08:28;;;;;;;18.00;7.72;;;16.80;99.90;;;;;;5051706;28;20083;-77
2022/06/04 11:11:08;;;;;;;16.30;8.20;;;17.00;99.90;;;;;;5053107;28;20044;-78
2022/06/04 11:13:45;;;;;;;18.67;8.23;;;17.10;99.90;;;;;;5051996;28;20049;-78
2022/06/04 11:16:31;;;;;;;19.20;8.60;;;17.00;99.90;;;;;;5051853;28;20045;-78
2022/06/04 11:19:19;;;;;;;22.05;8.93;;;17.50;99.90;;;;;;5051324;28;20056;-78
2022/06/04 11:21:48;;;;;;;20.55;8.20;;;17.40;99.90;;;;;;5051582;28;20049;-77
2022/06/04 11:24:20;;;;;;;17.60;7.82;;;16.90;99.90;;;;;;5051993;28;20147;-77
2022/06/04 11:26:48;;;;;;;17.92;8.93;;;17.30;99.90;;;;;;5051443;28;20053;-78
2022/06/04 11:29:15;;;;;;;17.63;9.15;;;17.30;99.90;;;;;;5116862;22;20042;-78
2022/06/04 11:32:18;;;;;;;27.27;9.75;;;17.50;99.90;;;;;;5013443;28;20050;-78
2022/06/04 11:35:09;;;;;;;23.50;9.10;;;17.60;99.90;;;;;;5013234;28;20054;-78
2022/06/04 11:37:46;;;;;;;22.55;9.00;;;17.10;99.90;;;;;;5012000;28;20394;-78
2022/06/04 11:40:24;;;;;;;19.77;8.93;;;17.70;99.90;;;;;;5011949;28;20081;-78
2022/06/04 11:43:08;;;;;;;19.83;9.45;;;17.70;99.90;;;;;;5011833;28;20056;-78
2022/06/04 11:45:57;;;;;;;24.38;9.73;;;17.50;99.90;;;;;;5015302;28;20056;-78
2022/06/04 11:48:35;;;;;;;24.30;9.57;;;17.30;99.90;;;;;;5016538;28;20046;-78
2022/06/04 11:51:25;;;;;;;19.67;9.77;;;17.70;99.90;;;;;;5015626;28;20050;-78
2022/06/04 11:53:58;;;;;;;21.85;9.40;;;17.70;99.90;;;;;;5015747;28;20061;-77
2022/06/04 11:56:39;;;;;;;26.25;9.57;;;18.20;99.90;;;;;;5015675;28;20046;-77
2022/06/04 11:59:16;;;;;;;17.83;8.80;;;17.90;99.90;;;;;;5014863;28;20129;-77
2022/06/04 12:01:51;;;;;;;20.15;8.35;;;17.30;99.90;;;;;;5015332;28;20046;-82
2022/06/04 12:04:28;;;;;;;21.33;8.73;;;17.70;99.90;;;;;;5016853;28;20056;-78
2022/06/04 12:07:05;;;;;;;23.63;8.52;;;17.70;99.90;;;;;;5015591;28;20049;-78
2022/06/04 12:09:59;;;;;;;18.13;8.00;;;17.70;99.90;;;;;;5016747;28;20056;-78
2022/06/04 12:12:42;;;;;;;22.42;9.93;;;18.10;99.90;;;;;;5016408;28;20400;-77
2022/06/04 12:15:45;;;;;;;24.20;9.63;;;17.30;99.90;;;;;;5016237;28;20200;-77
2022/06/04 12:18:20;;;;;;;;;;;17.70;99.90;;;;;;5015424;28;20049;-77
2022/06/04 12:26:38;;;;;;;18.48;9.10;;;17.70;99.90;;;;;;4995357;28;20446;-78
2022/06/04 12:29:28;;;;;;;17.08;7.38;;;17.30;99.90;;;;;;5009763;28;20653;-78
2022/06/04 12:32:17;;;;;;;17.52;8.57;;;17.90;99.90;;;;;;5014668;28;20042;-77
2022/06/04 12:34:43;;;;;;;18.70;9.05;;;17.50;99.90;;;;;;5015992;28;20491;-78
2022/06/04 12:37:24;;;;;;;25.10;9.73;;;17.20;99.90;;;;;;5016234;28;20042;-78
2022/06/04 12:39:50;;;;;;;20.92;9.30;;;17.00;99.90;;;;;;5014448;28;20046;-78
2022/06/04 12:42:19;;;;;;;38.60;9.23;;;17.40;99.90;;;;;;5016173;28;20045;-78
2022/06/04 12:45:33;;;;;;;28.45;8.50;;;17.20;99.90;;;;;;5020032;28;20045;-78
2022/06/04 12:47:58;;;;;;;22.00;7.75;;;17.10;99.90;;;;;;5025696;28;20049;-78
2022/06/04 12:50:32;;;;;;;22.60;8.52;;;17.40;99.90;;;;;;5015808;28;20045;-78
2022/06/04 12:53:06;;;;;;;18.27;7.55;;;17.20;99.90;;;;;;5015522;28;20520;-78
2022/06/04 12:55:44;;;;;;;17.85;8.48;;;17.30;99.90;;;;;;5014438;28;20049;-78
2022/06/04 12:58:35;;;;;;;21.23;8.05;;;16.90;99.90;;;;;;5013785;28;20050;-77
2022/06/04 13:01:21;;;;;;;18.67;8.23;;;16.90;99.90;;;;;;5007851;28;20061;-78
2022/06/04 13:04:03;;;;;;;24.88;9.63;;;17.00;99.90;;;;;;5014246;28;20088;-77
2022/06/04 13:06:46;;;;;;;21.55;7.70;;;17.10;99.90;;;;;;5015488;28;20049;-78
2022/06/04 13:09:49;;;;;;;27.25;7.68;;;17.60;99.90;;;;;;5015377;28;20129;-78
2022/06/04 13:12:29;;;;;;;24.42;8.50;;;17.70;99.90;;;;;;5015246;28;20481;-78
2022/06/04 13:15:26;;;;;;;19.88;8.85;;;17.50;99.90;;;;;;5014650;28;20042;-78
2022/06/04 13:17:53;;;;;;;21.45;8.63;;;17.60;99.90;;;;;;5015402;28;20046;-78
2022/06/04 13:20:34;;;;;;;18.92;8.52;;;17.50;99.90;;;;;;5015120;28;20413;-78
2022/06/04 13:23:29;;;;;;;18.63;7.75;;;17.40;99.90;;;;;;5015129;28;20405;-79
2022/06/04 13:26:09;;;;;;;14.23;8.43;;;17.30;99.90;;;;;;5015275;28;20041;-78